Pagina principală
METAR-TAF:

METAR-TAF

Aeroporturi :

Portland International Airport

Portland, Oregon, Statele Unite ale Americii

Latitudine: 45-35-27N, longitudine: 122-36-01W, elevație: 8 m

Observații meteo curente

Raportul a fost făcut în urmă cu 16 de minute, la 09:53 UTC
Vânt 4 kt de la Nord/Nord-vest
Temperatură 18°C
Umiditate 73%
Presiune 1015 hPa
Vizibilitate: 16.1 km
Cer senin

METAR: KPDX 130953Z 34004KT 10SM CLR 18/13 A2998 RMK AO2 SLP151 T01830128

Ora: 03:09 (10:09 UTC)

Prognoză

Raportul a fost făcut în urmă cu 1 oră și 22 de minute, la 08:47 UTC
Prognoză valabilă de la 13 ora 09 UTC la 14 ora 06 UTC
Vânt 3 kt de la Nord/Nord-vest
Vizibilitate: 10 km
Cer senin
De la 13 ora 2300 UTC
Vânt 10 kt de la Nord-vest
Vizibilitate: 10 km
Cer senin

TAF: KPDX 130847Z 1309/1406 33003KT P6SM SKC FM132300 32010KT P6SM SKC

Observații și prognoze meteo pentru peste 4.000 de aeroporturi (rapoarte METAR și TAF).

Stațiile disponibile sunt reprezentate pe hartă prin puncte galbene și roșii.

Țineți indicatorul mouse-ului pe punctul dorit pentru a vedea denumirea stației.

Apoi, faceți clic pentru a vedea observațiile și prognozele meteorologice.

Pentru a schimba harta: Pentru mărire, faceți clic pe butoanele verzi cu cruce neagră; pentru micșorare, pe butonul verde cu o liniuță; pentru hărți învecinate, pe săgețile verzi.


METAR-TAF: